sensor_id;sensor_type;location;lat;lon;timestamp;P1;durP1;ratioP1;P2;durP2;ratioP2
51612;SDS011;37694;51.748;14.326;2023-07-02T00:01:20;3.28;;;2.97;;
51612;SDS011;37694;51.748;14.326;2023-07-02T00:03:46;5.63;;;3.00;;
51612;SDS011;37694;51.748;14.326;2023-07-02T00:06:12;3.25;;;2.95;;
51612;SDS011;37694;51.748;14.326;2023-07-02T00:08:37;4.35;;;2.85;;
51612;SDS011;37694;51.748;14.326;2023-07-02T00:11:05;7.50;;;2.55;;
51612;SDS011;37694;51.748;14.326;2023-07-02T00:13:31;2.97;;;2.67;;
51612;SDS011;37694;51.748;14.326;2023-07-02T00:15:56;2.53;;;2.20;;
51612;SDS011;37694;51.748;14.326;2023-07-02T00:18:23;3.00;;;2.70;;
51612;SDS011;37694;51.748;14.326;2023-07-02T00:20:58;2.70;;;2.50;;
51612;SDS011;37694;51.748;14.326;2023-07-02T00:23:28;4.00;;;2.78;;
51612;SDS011;37694;51.748;14.326;2023-07-02T00:25:54;2.80;;;2.60;;
51612;SDS011;37694;51.748;14.326;2023-07-02T00:28:20;2.50;;;2.30;;
51612;SDS011;37694;51.748;14.326;2023-07-02T00:30:46;2.33;;;2.10;;
51612;SDS011;37694;51.748;14.326;2023-07-02T00:33:11;3.67;;;2.10;;
51612;SDS011;37694;51.748;14.326;2023-07-02T00:35:37;2.83;;;2.63;;
51612;SDS011;37694;51.748;14.326;2023-07-02T00:38:03;3.90;;;2.58;;
51612;SDS011;37694;51.748;14.326;2023-07-02T00:40:29;2.55;;;2.20;;
51612;SDS011;37694;51.748;14.326;2023-07-02T00:42:54;3.75;;;2.45;;
51612;SDS011;37694;51.748;14.326;2023-07-02T00:45:21;3.25;;;2.67;;
51612;SDS011;37694;51.748;14.326;2023-07-02T00:47:47;3.03;;;2.65;;
51612;SDS011;37694;51.748;14.326;2023-07-02T00:50:14;2.70;;;2.50;;
51612;SDS011;37694;51.748;14.326;2023-07-02T00:52:40;9.10;;;3.08;;
51612;SDS011;37694;51.748;14.326;2023-07-02T00:55:05;2.60;;;2.40;;
51612;SDS011;37694;51.748;14.326;2023-07-02T00:57:31;3.17;;;2.72;;
51612;SDS011;37694;51.748;14.326;2023-07-02T00:59:58;6.20;;;2.60;;
51612;SDS011;37694;51.748;14.326;2023-07-02T01:02:27;5.47;;;2.42;;
51612;SDS011;37694;51.748;14.326;2023-07-02T01:04:54;2.72;;;2.53;;
51612;SDS011;37694;51.748;14.326;2023-07-02T01:07:23;2.28;;;2.08;;
51612;SDS011;37694;51.748;14.326;2023-07-02T01:09:49;2.47;;;2.28;;
51612;SDS011;37694;51.748;14.326;2023-07-02T01:12:15;4.35;;;2.22;;
51612;SDS011;37694;51.748;14.326;2023-07-02T01:14:44;2.42;;;2.22;;
51612;SDS011;37694;51.748;14.326;2023-07-02T01:17:16;2.20;;;2.10;;
51612;SDS011;37694;51.748;14.326;2023-07-02T01:19:53;3.28;;;2.45;;
51612;SDS011;37694;51.748;14.326;2023-07-02T01:22:27;2.80;;;2.60;;
51612;SDS011;37694;51.748;14.326;2023-07-02T01:24:53;2.45;;;2.25;;
51612;SDS011;37694;51.748;14.326;2023-07-02T01:27:20;3.03;;;2.20;;
51612;SDS011;37694;51.748;14.326;2023-07-02T01:29:46;2.50;;;2.30;;
51612;SDS011;37694;51.748;14.326;2023-07-02T01:32:15;2.25;;;2.10;;
51612;SDS011;37694;51.748;14.326;2023-07-02T01:34:41;2.45;;;2.25;;
51612;SDS011;37694;51.748;14.326;2023-07-02T01:37:13;2.08;;;1.98;;
51612;SDS011;37694;51.748;14.326;2023-07-02T01:39:39;2.38;;;2.08;;
51612;SDS011;37694;51.748;14.326;2023-07-02T01:44:39;2.28;;;2.08;;
51612;SDS011;37694;51.748;14.326;2023-07-02T01:47:05;3.45;;;2.40;;
51612;SDS011;37694;51.748;14.326;2023-07-02T01:49:31;2.40;;;2.20;;
51612;SDS011;37694;51.748;14.326;2023-07-02T01:51:57;2.25;;;2.05;;
51612;SDS011;37694;51.748;14.326;2023-07-02T01:54:24;2.05;;;1.95;;
51612;SDS011;37694;51.748;14.326;2023-07-02T01:56:54;2.10;;;2.00;;
51612;SDS011;37694;51.748;14.326;2023-07-02T01:59:20;5.15;;;3.08;;
51612;SDS011;37694;51.748;14.326;2023-07-02T02:01:46;2.05;;;1.92;;
51612;SDS011;37694;51.748;14.326;2023-07-02T02:04:12;2.72;;;2.15;;
51612;SDS011;37694;51.748;14.326;2023-07-02T02:06:38;2.60;;;2.40;;
51612;SDS011;37694;51.748;14.326;2023-07-02T02:09:04;4.55;;;2.00;;
51612;SDS011;37694;51.748;14.326;2023-07-02T02:11:31;1.83;;;1.73;;
51612;SDS011;37694;51.748;14.326;2023-07-02T02:13:58;4.00;;;2.08;;
51612;SDS011;37694;51.748;14.326;2023-07-02T02:16:26;2.25;;;2.15;;
51612;SDS011;37694;51.748;14.326;2023-07-02T02:18:52;2.67;;;2.03;;
51612;SDS011;37694;51.748;14.326;2023-07-02T02:21:18;1.75;;;1.65;;
51612;SDS011;37694;51.748;14.326;2023-07-02T02:23:44;4.35;;;2.15;;
51612;SDS011;37694;51.748;14.326;2023-07-02T02:26:10;1.70;;;1.60;;
51612;SDS011;37694;51.748;14.326;2023-07-02T02:28:36;2.10;;;1.90;;
51612;SDS011;37694;51.748;14.326;2023-07-02T02:31:02;2.40;;;2.22;;
51612;SDS011;37694;51.748;14.326;2023-07-02T02:33:28;2.15;;;1.75;;
51612;SDS011;37694;51.748;14.326;2023-07-02T02:35:54;2.22;;;1.98;;
51612;SDS011;37694;51.748;14.326;2023-07-02T02:38:19;1.80;;;1.70;;
51612;SDS011;37694;51.748;14.326;2023-07-02T02:40:45;2.20;;;2.00;;
51612;SDS011;37694;51.748;14.326;2023-07-02T02:43:11;1.77;;;1.67;;
51612;SDS011;37694;51.748;14.326;2023-07-02T02:45:37;2.88;;;1.77;;
51612;SDS011;37694;51.748;14.326;2023-07-02T02:48:03;5.38;;;2.10;;
51612;SDS011;37694;51.748;14.326;2023-07-02T02:50:29;6.30;;;1.83;;
51612;SDS011;37694;51.748;14.326;2023-07-02T02:52:54;1.88;;;1.73;;
51612;SDS011;37694;51.748;14.326;2023-07-02T02:55:20;2.15;;;1.95;;
51612;SDS011;37694;51.748;14.326;2023-07-02T02:57:45;1.83;;;1.50;;
51612;SDS011;37694;51.748;14.326;2023-07-02T03:00:11;4.32;;;1.92;;
51612;SDS011;37694;51.748;14.326;2023-07-02T03:02:37;2.17;;;1.70;;
51612;SDS011;37694;51.748;14.326;2023-07-02T03:05:04;3.60;;;1.70;;
51612;SDS011;37694;51.748;14.326;2023-07-02T03:07:31;1.98;;;1.88;;
51612;SDS011;37694;51.748;14.326;2023-07-02T03:09:58;2.13;;;1.60;;
51612;SDS011;37694;51.748;14.326;2023-07-02T03:12:25;1.85;;;1.75;;
51612;SDS011;37694;51.748;14.326;2023-07-02T03:14:51;1.80;;;1.70;;
51612;SDS011;37694;51.748;14.326;2023-07-02T03:17:19;9.23;;;2.05;;
51612;SDS011;37694;51.748;14.326;2023-07-02T03:19:46;1.77;;;1.67;;
51612;SDS011;37694;51.748;14.326;2023-07-02T03:22:11;2.60;;;1.88;;
51612;SDS011;37694;51.748;14.326;2023-07-02T03:24:37;1.90;;;1.80;;
51612;SDS011;37694;51.748;14.326;2023-07-02T03:27:03;1.88;;;1.73;;
51612;SDS011;37694;51.748;14.326;2023-07-02T03:29:29;1.80;;;1.70;;
51612;SDS011;37694;51.748;14.326;2023-07-02T03:31:55;1.90;;;1.80;;
51612;SDS011;37694;51.748;14.326;2023-07-02T03:34:22;1.58;;;1.38;;
51612;SDS011;37694;51.748;14.326;2023-07-02T03:36:48;1.73;;;1.63;;
51612;SDS011;37694;51.748;14.326;2023-07-02T03:39:14;3.60;;;1.58;;
51612;SDS011;37694;51.748;14.326;2023-07-02T03:41:41;3.55;;;1.58;;
51612;SDS011;37694;51.748;14.326;2023-07-02T03:44:07;2.30;;;1.90;;
51612;SDS011;37694;51.748;14.326;2023-07-02T03:46:33;2.47;;;1.80;;
51612;SDS011;37694;51.748;14.326;2023-07-02T03:48:58;1.58;;;1.48;;
51612;SDS011;37694;51.748;14.326;2023-07-02T03:51:24;2.00;;;1.77;;
51612;SDS011;37694;51.748;14.326;2023-07-02T03:53:50;1.75;;;1.65;;
51612;SDS011;37694;51.748;14.326;2023-07-02T03:56:15;3.13;;;1.45;;
51612;SDS011;37694;51.748;14.326;2023-07-02T03:58:41;2.42;;;2.08;;
51612;SDS011;37694;51.748;14.326;2023-07-02T04:01:07;1.48;;;1.38;;
51612;SDS011;37694;51.748;14.326;2023-07-02T04:03:33;1.95;;;1.85;;
51612;SDS011;37694;51.748;14.326;2023-07-02T04:05:59;1.75;;;1.50;;
51612;SDS011;37694;51.748;14.326;2023-07-02T04:08:24;2.40;;;1.52;;
51612;SDS011;37694;51.748;14.326;2023-07-02T04:10:53;1.60;;;1.50;;
51612;SDS011;37694;51.748;14.326;2023-07-02T04:13:19;3.22;;;1.58;;
51612;SDS011;37694;51.748;14.326;2023-07-02T04:15:45;1.30;;;1.30;;
51612;SDS011;37694;51.748;14.326;2023-07-02T04:18:11;1.70;;;1.60;;
51612;SDS011;37694;51.748;14.326;2023-07-02T04:20:37;4.70;;;1.80;;
51612;SDS011;37694;51.748;14.326;2023-07-02T04:23:04;2.17;;;1.98;;
51612;SDS011;37694;51.748;14.326;2023-07-02T04:25:30;1.73;;;1.60;;
51612;SDS011;37694;51.748;14.326;2023-07-02T04:27:56;3.22;;;1.92;;
51612;SDS011;37694;51.748;14.326;2023-07-02T04:30:23;3.72;;;1.52;;
51612;SDS011;37694;51.748;14.326;2023-07-02T04:32:49;3.78;;;1.60;;
51612;SDS011;37694;51.748;14.326;2023-07-02T04:35:15;1.88;;;1.48;;
51612;SDS011;37694;51.748;14.326;2023-07-02T04:37:41;3.55;;;1.60;;
51612;SDS011;37694;51.748;14.326;2023-07-02T04:40:07;1.52;;;1.42;;
51612;SDS011;37694;51.748;14.326;2023-07-02T04:42:36;1.52;;;1.42;;
51612;SDS011;37694;51.748;14.326;2023-07-02T04:45:06;1.40;;;1.33;;
51612;SDS011;37694;51.748;14.326;2023-07-02T04:47:33;1.65;;;1.55;;
51612;SDS011;37694;51.748;14.326;2023-07-02T04:50:01;1.70;;;1.60;;
51612;SDS011;37694;51.748;14.326;2023-07-02T04:52:27;1.80;;;1.70;;
51612;SDS011;37694;51.748;14.326;2023-07-02T04:54:53;1.58;;;1.48;;
51612;SDS011;37694;51.748;14.326;2023-07-02T04:57:20;2.28;;;1.20;;
51612;SDS011;37694;51.748;14.326;2023-07-02T04:59:46;1.67;;;1.58;;
51612;SDS011;37694;51.748;14.326;2023-07-02T05:02:12;1.60;;;1.50;;
51612;SDS011;37694;51.748;14.326;2023-07-02T05:04:38;1.65;;;1.55;;
51612;SDS011;37694;51.748;14.326;2023-07-02T05:07:04;1.77;;;1.67;;
51612;SDS011;37694;51.748;14.326;2023-07-02T05:09:30;1.50;;;1.40;;
51612;SDS011;37694;51.748;14.326;2023-07-02T05:11:55;2.00;;;1.85;;
51612;SDS011;37694;51.748;14.326;2023-07-02T05:14:22;1.58;;;1.48;;
51612;SDS011;37694;51.748;14.326;2023-07-02T05:16:48;1.60;;;1.50;;
51612;SDS011;37694;51.748;14.326;2023-07-02T05:19:13;3.13;;;2.20;;
51612;SDS011;37694;51.748;14.326;2023-07-02T05:21:39;2.78;;;1.40;;
51612;SDS011;37694;51.748;14.326;2023-07-02T05:24:05;1.83;;;1.73;;
51612;SDS011;37694;51.748;14.326;2023-07-02T05:26:33;1.60;;;1.50;;
51612;SDS011;37694;51.748;14.326;2023-07-02T05:28:59;4.53;;;1.50;;
51612;SDS011;37694;51.748;14.326;2023-07-02T05:31:24;1.70;;;1.60;;
51612;SDS011;37694;51.748;14.326;2023-07-02T05:33:50;3.03;;;1.30;;
51612;SDS011;37694;51.748;14.326;2023-07-02T05:36:16;1.50;;;1.40;;
51612;SDS011;37694;51.748;14.326;2023-07-02T05:38:42;2.05;;;1.40;;
51612;SDS011;37694;51.748;14.326;2023-07-02T05:41:07;1.42;;;1.27;;
51612;SDS011;37694;51.748;14.326;2023-07-02T05:43:33;2.30;;;1.25;;
51612;SDS011;37694;51.748;14.326;2023-07-02T05:45:59;3.83;;;1.88;;
51612;SDS011;37694;51.748;14.326;2023-07-02T05:48:27;4.32;;;1.50;;
51612;SDS011;37694;51.748;14.326;2023-07-02T05:50:53;2.85;;;1.50;;
51612;SDS011;37694;51.748;14.326;2023-07-02T05:53:19;1.33;;;1.23;;
51612;SDS011;37694;51.748;14.326;2023-07-02T05:55:45;1.55;;;1.38;;
51612;SDS011;37694;51.748;14.326;2023-07-02T05:58:11;2.65;;;1.52;;
51612;SDS011;37694;51.748;14.326;2023-07-02T06:00:36;1.50;;;1.40;;
51612;SDS011;37694;51.748;14.326;2023-07-02T06:03:02;1.67;;;1.58;;
51612;SDS011;37694;51.748;14.326;2023-07-02T06:05:28;1.67;;;1.58;;
51612;SDS011;37694;51.748;14.326;2023-07-02T06:07:54;1.42;;;1.33;;
51612;SDS011;37694;51.748;14.326;2023-07-02T06:10:20;2.42;;;1.30;;
51612;SDS011;37694;51.748;14.326;2023-07-02T06:12:45;3.67;;;1.50;;
51612;SDS011;37694;51.748;14.326;2023-07-02T06:15:11;1.48;;;1.38;;
51612;SDS011;37694;51.748;14.326;2023-07-02T06:17:37;2.65;;;1.45;;
51612;SDS011;37694;51.748;14.326;2023-07-02T06:20:03;2.55;;;1.42;;
51612;SDS011;37694;51.748;14.326;2023-07-02T06:22:32;1.73;;;1.63;;
51612;SDS011;37694;51.748;14.326;2023-07-02T06:24:58;4.40;;;1.60;;
51612;SDS011;37694;51.748;14.326;2023-07-02T06:27:23;1.83;;;1.00;;
51612;SDS011;37694;51.748;14.326;2023-07-02T06:29:49;2.20;;;1.83;;
51612;SDS011;37694;51.748;14.326;2023-07-02T06:32:16;1.70;;;1.10;;
51612;SDS011;37694;51.748;14.326;2023-07-02T06:34:42;1.83;;;1.35;;
51612;SDS011;37694;51.748;14.326;2023-07-02T06:37:07;3.70;;;1.20;;
51612;SDS011;37694;51.748;14.326;2023-07-02T06:39:33;4.05;;;1.35;;
51612;SDS011;37694;51.748;14.326;2023-07-02T06:41:59;1.30;;;1.10;;
51612;SDS011;37694;51.748;14.326;2023-07-02T06:44:24;3.88;;;1.27;;
51612;SDS011;37694;51.748;14.326;2023-07-02T06:46:50;3.53;;;1.27;;
51612;SDS011;37694;51.748;14.326;2023-07-02T06:49:16;1.83;;;1.60;;
51612;SDS011;37694;51.748;14.326;2023-07-02T06:51:41;4.55;;;1.60;;
51612;SDS011;37694;51.748;14.326;2023-07-02T06:54:07;1.27;;;1.27;;
51612;SDS011;37694;51.748;14.326;2023-07-02T06:56:33;4.20;;;1.25;;
51612;SDS011;37694;51.748;14.326;2023-07-02T06:58:59;3.42;;;1.38;;
51612;SDS011;37694;51.748;14.326;2023-07-02T07:01:25;1.50;;;1.40;;
51612;SDS011;37694;51.748;14.326;2023-07-02T07:03:51;3.15;;;1.70;;
51612;SDS011;37694;51.748;14.326;2023-07-02T07:06:17;5.60;;;1.52;;
51612;SDS011;37694;51.748;14.326;2023-07-02T07:08:42;3.28;;;1.60;;
51612;SDS011;37694;51.748;14.326;2023-07-02T07:11:08;2.05;;;1.50;;
51612;SDS011;37694;51.748;14.326;2023-07-02T07:13:34;2.10;;;1.40;;
51612;SDS011;37694;51.748;14.326;2023-07-02T07:15:59;6.07;;;1.27;;
51612;SDS011;37694;51.748;14.326;2023-07-02T07:18:25;4.75;;;1.88;;
51612;SDS011;37694;51.748;14.326;2023-07-02T07:20:51;6.80;;;1.85;;
51612;SDS011;37694;51.748;14.326;2023-07-02T07:23:17;1.60;;;1.30;;
51612;SDS011;37694;51.748;14.326;2023-07-02T07:25:43;1.63;;;1.20;;
51612;SDS011;37694;51.748;14.326;2023-07-02T07:28:09;3.28;;;1.67;;
51612;SDS011;37694;51.748;14.326;2023-07-02T07:30:40;2.70;;;1.42;;
51612;SDS011;37694;51.748;14.326;2023-07-02T07:33:09;11.45;;;1.70;;
51612;SDS011;37694;51.748;14.326;2023-07-02T07:35:35;1.70;;;1.60;;
51612;SDS011;37694;51.748;14.326;2023-07-02T07:38:01;4.10;;;1.60;;
51612;SDS011;37694;51.748;14.326;2023-07-02T07:40:27;4.55;;;1.52;;
51612;SDS011;37694;51.748;14.326;2023-07-02T07:42:53;3.83;;;1.70;;
51612;SDS011;37694;51.748;14.326;2023-07-02T07:45:18;8.05;;;1.60;;
51612;SDS011;37694;51.748;14.326;2023-07-02T07:47:44;18.27;;;1.90;;
51612;SDS011;37694;51.748;14.326;2023-07-02T07:50:10;2.47;;;1.50;;
51612;SDS011;37694;51.748;14.326;2023-07-02T07:52:36;4.45;;;1.40;;
51612;SDS011;37694;51.748;14.326;2023-07-02T07:55:03;3.63;;;1.48;;
51612;SDS011;37694;51.748;14.326;2023-07-02T07:57:29;1.80;;;1.70;;
51612;SDS011;37694;51.748;14.326;2023-07-02T07:59:55;4.93;;;1.55;;
51612;SDS011;37694;51.748;14.326;2023-07-02T08:02:20;5.07;;;1.45;;
51612;SDS011;37694;51.748;14.326;2023-07-02T08:04:48;5.15;;;1.33;;
51612;SDS011;37694;51.748;14.326;2023-07-02T08:07:13;4.68;;;1.40;;
51612;SDS011;37694;51.748;14.326;2023-07-02T08:09:39;3.10;;;1.60;;
51612;SDS011;37694;51.748;14.326;2023-07-02T08:12:05;1.83;;;1.73;;
51612;SDS011;37694;51.748;14.326;2023-07-02T08:14:31;7.43;;;1.77;;
51612;SDS011;37694;51.748;14.326;2023-07-02T08:16:57;6.60;;;1.50;;
51612;SDS011;37694;51.748;14.326;2023-07-02T08:19:22;6.72;;;1.50;;
51612;SDS011;37694;51.748;14.326;2023-07-02T08:21:48;4.93;;;1.65;;
51612;SDS011;37694;51.748;14.326;2023-07-02T08:24:14;7.38;;;1.63;;
51612;SDS011;37694;51.748;14.326;2023-07-02T08:26:39;3.45;;;1.77;;
51612;SDS011;37694;51.748;14.326;2023-07-02T08:29:05;2.60;;;2.00;;
51612;SDS011;37694;51.748;14.326;2023-07-02T08:31:31;6.00;;;1.90;;
51612;SDS011;37694;51.748;14.326;2023-07-02T08:33:56;1.75;;;1.48;;
51612;SDS011;37694;51.748;14.326;2023-07-02T08:36:22;2.42;;;1.80;;
51612;SDS011;37694;51.748;14.326;2023-07-02T08:38:48;5.75;;;2.08;;
51612;SDS011;37694;51.748;14.326;2023-07-02T08:41:13;3.95;;;1.92;;
51612;SDS011;37694;51.748;14.326;2023-07-02T08:43:39;2.50;;;2.00;;
51612;SDS011;37694;51.748;14.326;2023-07-02T08:46:05;6.15;;;1.70;;
51612;SDS011;37694;51.748;14.326;2023-07-02T08:48:32;17.92;;;2.30;;
51612;SDS011;37694;51.748;14.326;2023-07-02T08:50:59;1.95;;;1.63;;
51612;SDS011;37694;51.748;14.326;2023-07-02T08:53:25;4.28;;;1.90;;
51612;SDS011;37694;51.748;14.326;2023-07-02T08:55:55;10.02;;;1.73;;
51612;SDS011;37694;51.748;14.326;2023-07-02T08:58:24;2.92;;;2.10;;
51612;SDS011;37694;51.748;14.326;2023-07-02T09:01:08;5.55;;;1.98;;
51612;SDS011;37694;51.748;14.326;2023-07-02T09:03:36;5.95;;;2.45;;
51612;SDS011;37694;51.748;14.326;2023-07-02T09:06:03;5.80;;;2.30;;
51612;SDS011;37694;51.748;14.326;2023-07-02T09:08:33;5.13;;;1.92;;
51612;SDS011;37694;51.748;14.326;2023-07-02T09:11:08;6.57;;;2.40;;
51612;SDS011;37694;51.748;14.326;2023-07-02T09:13:53;5.22;;;2.50;;
51612;SDS011;37694;51.748;14.326;2023-07-02T09:16:30;11.75;;;2.28;;
51612;SDS011;37694;51.748;14.326;2023-07-02T09:21:25;4.55;;;2.30;;
51612;SDS011;37694;51.748;14.326;2023-07-02T09:23:52;4.65;;;2.60;;
51612;SDS011;37694;51.748;14.326;2023-07-02T09:26:21;7.18;;;2.45;;
51612;SDS011;37694;51.748;14.326;2023-07-02T09:28:47;6.30;;;2.65;;
51612;SDS011;37694;51.748;14.326;2023-07-02T09:31:13;5.25;;;2.50;;
51612;SDS011;37694;51.748;14.326;2023-07-02T09:33:39;10.13;;;2.05;;
51612;SDS011;37694;51.748;14.326;2023-07-02T09:36:05;4.03;;;2.35;;
51612;SDS011;37694;51.748;14.326;2023-07-02T09:38:30;9.43;;;2.40;;
51612;SDS011;37694;51.748;14.326;2023-07-02T09:40:57;5.35;;;2.30;;
51612;SDS011;37694;51.748;14.326;2023-07-02T09:43:23;3.38;;;2.50;;
51612;SDS011;37694;51.748;14.326;2023-07-02T09:45:50;7.47;;;2.65;;
51612;SDS011;37694;51.748;14.326;2023-07-02T09:48:19;4.45;;;2.28;;
51612;SDS011;37694;51.748;14.326;2023-07-02T09:50:49;3.53;;;2.30;;
51612;SDS011;37694;51.748;14.326;2023-07-02T09:53:15;4.65;;;2.20;;
51612;SDS011;37694;51.748;14.326;2023-07-02T09:55:44;2.25;;;1.83;;
51612;SDS011;37694;51.748;14.326;2023-07-02T09:58:10;8.20;;;2.25;;
51612;SDS011;37694;51.748;14.326;2023-07-02T10:00:39;4.10;;;2.03;;
51612;SDS011;37694;51.748;14.326;2023-07-02T10:03:05;4.97;;;1.90;;
51612;SDS011;37694;51.748;14.326;2023-07-02T10:05:31;14.98;;;2.42;;
51612;SDS011;37694;51.748;14.326;2023-07-02T10:07:58;9.00;;;1.90;;
51612;SDS011;37694;51.748;14.326;2023-07-02T10:10:42;2.15;;;1.77;;
51612;SDS011;37694;51.748;14.326;2023-07-02T10:13:08;3.83;;;2.22;;
51612;SDS011;37694;51.748;14.326;2023-07-02T10:15:34;13.95;;;2.55;;
51612;SDS011;37694;51.748;14.326;2023-07-02T10:18:04;7.90;;;2.40;;
51612;SDS011;37694;51.748;14.326;2023-07-02T10:20:39;3.03;;;1.90;;
51612;SDS011;37694;51.748;14.326;2023-07-02T10:23:07;6.07;;;2.40;;
51612;SDS011;37694;51.748;14.326;2023-07-02T10:25:34;11.27;;;2.40;;
51612;SDS011;37694;51.748;14.326;2023-07-02T10:28:13;4.60;;;2.05;;
51612;SDS011;37694;51.748;14.326;2023-07-02T10:30:40;9.25;;;3.38;;
51612;SDS011;37694;51.748;14.326;2023-07-02T10:33:16;5.10;;;3.20;;
51612;SDS011;37694;51.748;14.326;2023-07-02T10:35:43;12.50;;;3.90;;
51612;SDS011;37694;51.748;14.326;2023-07-02T10:38:15;15.25;;;3.00;;
51612;SDS011;37694;51.748;14.326;2023-07-02T10:40:55;10.35;;;2.55;;
51612;SDS011;37694;51.748;14.326;2023-07-02T10:43:27;4.07;;;2.78;;
51612;SDS011;37694;51.748;14.326;2023-07-02T10:45:54;7.30;;;2.33;;
51612;SDS011;37694;51.748;14.326;2023-07-02T10:48:21;9.30;;;2.15;;
51612;SDS011;37694;51.748;14.326;2023-07-02T10:50:47;9.27;;;2.42;;
51612;SDS011;37694;51.748;14.326;2023-07-02T10:53:16;6.80;;;2.60;;
51612;SDS011;37694;51.748;14.326;2023-07-02T10:55:43;7.45;;;2.47;;
51612;SDS011;37694;51.748;14.326;2023-07-02T10:58:10;5.85;;;3.03;;
51612;SDS011;37694;51.748;14.326;2023-07-02T11:00:46;7.85;;;3.00;;
51612;SDS011;37694;51.748;14.326;2023-07-02T11:03:20;4.80;;;2.92;;
51612;SDS011;37694;51.748;14.326;2023-07-02T11:05:46;5.43;;;2.88;;
51612;SDS011;37694;51.748;14.326;2023-07-02T11:08:12;4.85;;;3.42;;
51612;SDS011;37694;51.748;14.326;2023-07-02T11:10:39;10.13;;;3.08;;
51612;SDS011;37694;51.748;14.326;2023-07-02T11:13:11;9.63;;;4.13;;
51612;SDS011;37694;51.748;14.326;2023-07-02T11:15:44;11.55;;;3.97;;
51612;SDS011;37694;51.748;14.326;2023-07-02T11:18:13;9.15;;;4.03;;
51612;SDS011;37694;51.748;14.326;2023-07-02T11:20:41;14.00;;;4.30;;
51612;SDS011;37694;51.748;14.326;2023-07-02T11:23:17;9.95;;;4.78;;
51612;SDS011;37694;51.748;14.326;2023-07-02T11:28:25;8.02;;;4.50;;
51612;SDS011;37694;51.748;14.326;2023-07-02T11:30:52;10.63;;;4.05;;
51612;SDS011;37694;51.748;14.326;2023-07-02T11:33:18;9.35;;;5.07;;
51612;SDS011;37694;51.748;14.326;2023-07-02T11:35:46;13.45;;;4.85;;
51612;SDS011;37694;51.748;14.326;2023-07-02T11:38:11;7.10;;;5.00;;
51612;SDS011;37694;51.748;14.326;2023-07-02T11:40:38;10.27;;;4.70;;
51612;SDS011;37694;51.748;14.326;2023-07-02T11:43:03;8.63;;;4.82;;
51612;SDS011;37694;51.748;14.326;2023-07-02T11:45:31;14.23;;;5.30;;
51612;SDS011;37694;51.748;14.326;2023-07-02T11:47:56;14.93;;;6.20;;
51612;SDS011;37694;51.748;14.326;2023-07-02T11:50:22;10.55;;;4.95;;
51612;SDS011;37694;51.748;14.326;2023-07-02T11:52:48;9.88;;;5.03;;
51612;SDS011;37694;51.748;14.326;2023-07-02T11:55:13;11.07;;;6.00;;
51612;SDS011;37694;51.748;14.326;2023-07-02T11:57:39;10.02;;;5.07;;
51612;SDS011;37694;51.748;14.326;2023-07-02T12:00:05;10.18;;;5.45;;
51612;SDS011;37694;51.748;14.326;2023-07-02T12:02:31;8.27;;;5.25;;
51612;SDS011;37694;51.748;14.326;2023-07-02T12:04:57;10.43;;;5.32;;
51612;SDS011;37694;51.748;14.326;2023-07-02T12:07:22;8.38;;;5.35;;
51612;SDS011;37694;51.748;14.326;2023-07-02T12:09:48;13.80;;;6.25;;
51612;SDS011;37694;51.748;14.326;2023-07-02T12:12:14;16.35;;;6.82;;
51612;SDS011;37694;51.748;14.326;2023-07-02T12:14:39;11.10;;;5.90;;
51612;SDS011;37694;51.748;14.326;2023-07-02T12:17:08;10.63;;;5.53;;
51612;SDS011;37694;51.748;14.326;2023-07-02T12:19:37;11.85;;;5.78;;
51612;SDS011;37694;51.748;14.326;2023-07-02T12:22:06;11.10;;;6.22;;
51612;SDS011;37694;51.748;14.326;2023-07-02T12:24:32;9.90;;;5.50;;
51612;SDS011;37694;51.748;14.326;2023-07-02T12:26:57;14.88;;;6.22;;
51612;SDS011;37694;51.748;14.326;2023-07-02T12:29:23;12.88;;;5.55;;
51612;SDS011;37694;51.748;14.326;2023-07-02T12:31:49;16.27;;;5.72;;
51612;SDS011;37694;51.748;14.326;2023-07-02T12:34:15;12.20;;;6.03;;
51612;SDS011;37694;51.748;14.326;2023-07-02T12:36:41;10.65;;;5.40;;
51612;SDS011;37694;51.748;14.326;2023-07-02T12:39:07;8.57;;;5.10;;
51612;SDS011;37694;51.748;14.326;2023-07-02T12:41:33;10.25;;;5.38;;
51612;SDS011;37694;51.748;14.326;2023-07-02T12:43:59;11.00;;;5.25;;
51612;SDS011;37694;51.748;14.326;2023-07-02T12:46:25;11.63;;;5.88;;
51612;SDS011;37694;51.748;14.326;2023-07-02T12:48:51;14.13;;;5.05;;
51612;SDS011;37694;51.748;14.326;2023-07-02T12:51:16;14.88;;;6.22;;
51612;SDS011;37694;51.748;14.326;2023-07-02T12:53:42;8.63;;;4.93;;
51612;SDS011;37694;51.748;14.326;2023-07-02T12:56:08;8.75;;;5.10;;
51612;SDS011;37694;51.748;14.326;2023-07-02T12:58:33;15.32;;;5.97;;
51612;SDS011;37694;51.748;14.326;2023-07-02T13:00:59;12.20;;;6.15;;
51612;SDS011;37694;51.748;14.326;2023-07-02T13:03:25;13.32;;;5.93;;
51612;SDS011;37694;51.748;14.326;2023-07-02T13:05:50;12.90;;;5.63;;
51612;SDS011;37694;51.748;14.326;2023-07-02T13:08:16;12.95;;;5.68;;
51612;SDS011;37694;51.748;14.326;2023-07-02T13:10:42;16.13;;;5.80;;
51612;SDS011;37694;51.748;14.326;2023-07-02T13:13:08;18.23;;;5.63;;
51612;SDS011;37694;51.748;14.326;2023-07-02T13:15:34;11.40;;;5.63;;
51612;SDS011;37694;51.748;14.326;2023-07-02T13:18:00;11.48;;;5.85;;
51612;SDS011;37694;51.748;14.326;2023-07-02T13:20:26;11.45;;;5.80;;
51612;SDS011;37694;51.748;14.326;2023-07-02T13:22:52;10.30;;;6.07;;
51612;SDS011;37694;51.748;14.326;2023-07-02T13:25:18;16.77;;;6.93;;
51612;SDS011;37694;51.748;14.326;2023-07-02T13:27:43;10.50;;;5.75;;
51612;SDS011;37694;51.748;14.326;2023-07-02T13:30:09;13.05;;;6.22;;
51612;SDS011;37694;51.748;14.326;2023-07-02T13:32:35;13.65;;;6.68;;
51612;SDS011;37694;51.748;14.326;2023-07-02T13:35:01;10.90;;;5.85;;
51612;SDS011;37694;51.748;14.326;2023-07-02T13:37:26;9.43;;;6.28;;
51612;SDS011;37694;51.748;14.326;2023-07-02T13:39:52;16.08;;;6.03;;
51612;SDS011;37694;51.748;14.326;2023-07-02T13:42:18;11.25;;;6.18;;
51612;SDS011;37694;51.748;14.326;2023-07-02T13:44:44;11.98;;;6.15;;
51612;SDS011;37694;51.748;14.326;2023-07-02T13:47:10;10.45;;;6.43;;
51612;SDS011;37694;51.748;14.326;2023-07-02T13:49:36;13.65;;;6.25;;
51612;SDS011;37694;51.748;14.326;2023-07-02T13:52:02;14.00;;;6.68;;
51612;SDS011;37694;51.748;14.326;2023-07-02T13:54:28;18.58;;;6.45;;
51612;SDS011;37694;51.748;14.326;2023-07-02T13:56:55;11.82;;;6.00;;
51612;SDS011;37694;51.748;14.326;2023-07-02T13:59:21;11.38;;;5.93;;
51612;SDS011;37694;51.748;14.326;2023-07-02T14:01:47;13.05;;;5.93;;
51612;SDS011;37694;51.748;14.326;2023-07-02T14:04:13;17.10;;;6.35;;
51612;SDS011;37694;51.748;14.326;2023-07-02T14:06:39;14.18;;;7.25;;
51612;SDS011;37694;51.748;14.326;2023-07-02T14:09:05;13.52;;;6.35;;
51612;SDS011;37694;51.748;14.326;2023-07-02T14:11:33;17.35;;;5.68;;
51612;SDS011;37694;51.748;14.326;2023-07-02T14:14:00;16.40;;;6.35;;
51612;SDS011;37694;51.748;14.326;2023-07-02T14:16:25;12.45;;;5.53;;
51612;SDS011;37694;51.748;14.326;2023-07-02T14:18:51;9.93;;;5.40;;
51612;SDS011;37694;51.748;14.326;2023-07-02T14:21:17;10.43;;;5.68;;
51612;SDS011;37694;51.748;14.326;2023-07-02T14:23:43;12.88;;;5.75;;
51612;SDS011;37694;51.748;14.326;2023-07-02T14:26:09;16.13;;;6.07;;
51612;SDS011;37694;51.748;14.326;2023-07-02T14:28:35;9.15;;;5.25;;
51612;SDS011;37694;51.748;14.326;2023-07-02T14:31:02;13.25;;;4.80;;
51612;SDS011;37694;51.748;14.326;2023-07-02T14:33:30;10.68;;;4.65;;
51612;SDS011;37694;51.748;14.326;2023-07-02T14:35:58;14.75;;;4.90;;